createdAt,value
2023-03-03T00:00:55.355Z,1.46
2023-03-03T00:03:28.076Z,1.21
2023-03-03T00:05:58.992Z,0.90
2023-03-03T00:08:31.797Z,0.48
2023-03-03T00:11:01.307Z,0.30
2023-03-03T00:13:43.820Z,0.66
2023-03-03T00:16:24.831Z,1.06
2023-03-03T00:19:01.659Z,1.61
2023-03-03T00:21:36.694Z,1.86
2023-03-03T00:24:27.184Z,1.64
2023-03-03T00:26:58.504Z,1.10
2023-03-03T00:29:31.643Z,0.60
2023-03-03T00:32:08.297Z,1.01
2023-03-03T00:34:39.738Z,0.78
2023-03-03T00:37:24.814Z,1.55
2023-03-03T00:39:53.877Z,1.75
2023-03-03T00:42:25.888Z,2.09
2023-03-03T00:44:59.111Z,2.14
2023-03-03T00:47:39.998Z,2.21
2023-03-03T00:50:07.857Z,2.42
2023-03-03T00:52:41.091Z,2.19
2023-03-03T00:55:10.849Z,2.26
2023-03-03T00:57:41.593Z,1.98
2023-03-03T01:00:20.075Z,2.06
2023-03-03T01:02:50.158Z,1.98
2023-03-03T01:05:19.975Z,2.13
2023-03-03T01:07:50.104Z,2.04
2023-03-03T01:10:18.762Z,2.15
2023-03-03T01:12:46.382Z,2.21
2023-03-03T01:15:16.336Z,1.81
2023-03-03T01:20:32.496Z,2.19
2023-03-03T01:23:07.122Z,2.33
2023-03-03T01:25:35.450Z,2.43
2023-03-03T01:28:04.907Z,2.28
2023-03-03T01:30:34.626Z,2.26
2023-03-03T01:33:04.264Z,2.23
2023-03-03T01:35:33.283Z,2.18
2023-03-03T01:38:02.894Z,2.36
2023-03-03T01:40:33.022Z,2.27
2023-03-03T01:43:02.470Z,2.24
2023-03-03T01:45:33.158Z,2.08
2023-03-03T01:48:08.799Z,1.81
2023-03-03T01:50:42.517Z,2.09
2023-03-03T01:53:19.119Z,2.10
2023-03-03T01:55:51.742Z,2.11
2023-03-03T01:58:27.921Z,1.54
2023-03-03T02:01:05.845Z,1.93
2023-03-03T02:03:36.803Z,2.02
2023-03-03T02:06:09.734Z,2.05
2023-03-03T02:08:43.453Z,1.98
2023-03-03T02:11:13.857Z,2.04
2023-03-03T02:13:48.960Z,2.09
2023-03-03T02:16:19.306Z,1.98
2023-03-03T02:18:50.852Z,1.75
2023-03-03T02:21:28.831Z,1.78
2023-03-03T02:24:07.552Z,1.76
2023-03-03T02:26:40.122Z,1.93
2023-03-03T02:29:13.511Z,1.91
2023-03-03T02:31:44.720Z,1.57
2023-03-03T02:34:13.125Z,1.67
2023-03-03T02:36:45.263Z,1.87
2023-03-03T02:39:24.486Z,2.04
2023-03-03T02:42:10.043Z,2.10
2023-03-03T02:44:44.855Z,1.17
2023-03-03T02:47:13.086Z,1.69
2023-03-03T02:49:43.065Z,1.66
2023-03-03T02:52:11.995Z,1.80
2023-03-03T02:54:46.250Z,1.95
2023-03-03T02:57:15.202Z,1.84
2023-03-03T02:59:44.323Z,1.90
2023-03-03T03:02:18.355Z,1.95
2023-03-03T03:04:48.764Z,1.56
2023-03-03T03:07:25.908Z,1.56
2023-03-03T03:09:56.661Z,1.85
2023-03-03T03:12:26.157Z,1.91
2023-03-03T03:14:56.916Z,1.84
2023-03-03T03:17:26.044Z,2.08
2023-03-03T03:19:56.271Z,1.89
2023-03-03T03:22:26.637Z,1.71
2023-03-03T03:24:58.370Z,1.87
2023-03-03T03:27:26.261Z,1.94
2023-03-03T03:30:01.794Z,1.95
2023-03-03T03:32:34.340Z,1.15
2023-03-03T03:35:04.511Z,1.50
2023-03-03T03:37:33.974Z,1.72
2023-03-03T03:40:05.345Z,1.85
2023-03-03T03:42:34.789Z,1.87
2023-03-03T03:45:04.072Z,1.30
2023-03-03T03:47:33.161Z,1.09
2023-03-03T03:50:02.710Z,0.63
2023-03-03T03:52:31.973Z,1.17
2023-03-03T03:55:00.824Z,1.05
2023-03-03T03:57:33.734Z,0.95
2023-03-03T04:00:03.849Z,1.41
2023-03-03T04:02:54.020Z,0.79
2023-03-03T04:05:27.223Z,1.31
2023-03-03T04:08:00.243Z,1.72
2023-03-03T04:10:29.462Z,1.81
2023-03-03T04:13:01.304Z,1.77
2023-03-03T04:15:31.760Z,1.83
2023-03-03T04:18:01.632Z,1.35
2023-03-03T04:20:32.013Z,0.65
2023-03-03T04:23:00.286Z,0.95
2023-03-03T04:25:29.777Z,1.43
2023-03-03T04:27:57.751Z,1.71
2023-03-03T04:30:28.266Z,1.66
2023-03-03T04:32:59.553Z,1.65
2023-03-03T04:35:28.168Z,1.76
2023-03-03T04:38:00.918Z,1.79
2023-03-03T04:40:30.245Z,1.83
2023-03-03T04:43:00.941Z,1.83
2023-03-03T04:45:32.605Z,1.24
2023-03-03T04:48:02.026Z,1.54
2023-03-03T04:50:35.136Z,1.15
2023-03-03T04:53:07.955Z,1.16
2023-03-03T04:55:39.968Z,1.50
2023-03-03T04:58:11.890Z,1.81
2023-03-03T05:00:41.844Z,1.46
2023-03-03T05:03:13.820Z,1.47
2023-03-03T05:05:43.889Z,1.69
2023-03-03T05:08:14.363Z,1.84
2023-03-03T05:10:43.918Z,1.73
2023-03-03T05:13:16.081Z,1.88
2023-03-03T05:15:45.587Z,1.86
2023-03-03T05:18:14.894Z,1.93
2023-03-03T05:20:44.132Z,1.97
2023-03-03T05:23:14.120Z,2.02
2023-03-03T05:25:43.522Z,1.49
2023-03-03T05:28:14.256Z,1.75
2023-03-03T05:30:41.383Z,1.86
2023-03-03T05:33:09.152Z,1.93
2023-03-03T05:35:42.318Z,1.98
2023-03-03T05:38:12.502Z,2.03
2023-03-03T05:40:42.804Z,1.88
2023-03-03T05:43:14.436Z,1.97
2023-03-03T05:45:43.521Z,1.87
2023-03-03T05:48:13.845Z,1.58
2023-03-03T05:50:44.344Z,1.85
2023-03-03T05:53:15.969Z,1.05
2023-03-03T05:55:54.304Z,1.28
2023-03-03T05:58:24.373Z,1.68
2023-03-03T06:00:54.410Z,1.48
2023-03-03T06:03:24.582Z,1.42
2023-03-03T06:05:58.759Z,1.49
2023-03-03T06:08:39.923Z,1.67
2023-03-03T06:11:13.727Z,1.47
2023-03-03T06:13:45.318Z,1.67
2023-03-03T06:16:15.444Z,1.52
2023-03-03T06:18:47.201Z,1.60
2023-03-03T06:21:20.492Z,1.46
2023-03-03T06:23:50.452Z,1.25
2023-03-03T06:26:25.765Z,1.30
2023-03-03T06:28:55.800Z,1.50
2023-03-03T06:31:30.500Z,1.57
2023-03-03T06:34:00.609Z,1.81
2023-03-03T06:36:29.926Z,1.70
2023-03-03T06:38:59.333Z,1.81
2023-03-03T06:41:28.203Z,1.91
2023-03-03T06:43:58.782Z,1.94
2023-03-03T06:46:28.410Z,1.94
2023-03-03T06:48:57.658Z,1.39
2023-03-03T06:51:29.101Z,1.80
2023-03-03T06:54:00.350Z,1.96
2023-03-03T06:56:38.097Z,1.98
2023-03-03T06:59:19.016Z,1.08
2023-03-03T07:01:51.619Z,1.74
2023-03-03T07:04:35.699Z,1.74
2023-03-03T07:07:34.614Z,1.50
2023-03-03T07:10:22.491Z,1.21
2023-03-03T07:15:38.514Z,0.59
2023-03-03T07:18:32.779Z,1.29
2023-03-03T07:21:14.188Z,1.67
2023-03-03T07:23:45.283Z,1.22
2023-03-03T07:26:30.298Z,1.63
2023-03-03T07:29:11.172Z,2.02
2023-03-03T07:31:40.285Z,2.02
2023-03-03T07:34:22.714Z,2.16
2023-03-03T07:36:55.130Z,2.12
2023-03-03T07:39:40.285Z,2.14
2023-03-03T07:42:24.262Z,2.07
2023-03-03T07:45:06.499Z,1.39
2023-03-03T07:47:38.988Z,1.98
2023-03-03T07:50:20.965Z,2.09
2023-03-03T07:52:57.467Z,2.10
2023-03-03T07:55:31.860Z,2.22
2023-03-03T07:58:22.378Z,2.13
2023-03-03T08:01:27.423Z,2.15
2023-03-03T08:04:00.928Z,2.05
2023-03-03T08:06:37.009Z,1.84
2023-03-03T08:09:10.361Z,2.00
2023-03-03T08:11:59.336Z,2.00
2023-03-03T08:14:29.053Z,1.69
2023-03-03T08:16:59.794Z,2.12
2023-03-03T08:19:31.184Z,1.89
2023-03-03T08:22:10.072Z,2.18
2023-03-03T08:24:39.048Z,2.20
2023-03-03T08:27:08.337Z,2.30
2023-03-03T08:29:37.820Z,2.31
2023-03-03T08:32:05.400Z,2.34
2023-03-03T08:34:32.758Z,2.52
2023-03-03T08:36:59.898Z,2.61
2023-03-03T08:39:26.917Z,2.68
2023-03-03T08:41:54.151Z,2.66
2023-03-03T08:44:21.271Z,2.61
2023-03-03T08:46:50.273Z,2.61
2023-03-03T08:49:19.252Z,2.73
2023-03-03T08:51:47.048Z,2.85
2023-03-03T08:54:14.189Z,2.69
2023-03-03T08:56:41.353Z,2.84
2023-03-03T08:59:08.496Z,2.45
2023-03-03T09:01:39.595Z,2.74
2023-03-03T09:04:06.863Z,2.55
2023-03-03T09:06:34.026Z,2.33
2023-03-03T09:09:03.802Z,2.39
2023-03-03T09:11:32.782Z,2.39
2023-03-03T09:14:07.972Z,2.87
2023-03-03T09:16:40.506Z,3.10
2023-03-03T09:19:29.947Z,2.97
2023-03-03T09:22:19.092Z,2.77
2023-03-03T09:24:48.959Z,3.04
2023-03-03T09:27:39.234Z,3.10
2023-03-03T09:31:01.688Z,2.91
2023-03-03T09:33:35.835Z,3.11
2023-03-03T09:36:24.302Z,3.37
2023-03-03T09:38:53.357Z,2.87
2023-03-03T09:41:41.953Z,3.48
2023-03-03T09:44:17.927Z,3.45
2023-03-03T09:46:54.671Z,3.62
2023-03-03T09:49:28.876Z,3.50
2023-03-03T09:52:19.971Z,3.54
2023-03-03T09:55:14.910Z,3.79
2023-03-03T09:58:08.151Z,2.98
2023-03-03T10:00:55.052Z,3.07
2023-03-03T10:04:01.140Z,2.93
2023-03-03T10:07:15.697Z,3.48
2023-03-03T10:09:57.700Z,3.71
2023-03-03T10:12:51.622Z,3.94
2023-03-03T10:15:34.185Z,3.97
2023-03-03T10:18:13.767Z,3.93
2023-03-03T10:21:03.451Z,4.08
2023-03-03T10:24:27.583Z,4.05
2023-03-03T10:27:21.162Z,4.02
2023-03-03T10:30:39.842Z,4.25
2023-03-03T10:33:46.112Z,3.90
2023-03-03T10:36:26.006Z,4.33
2023-03-03T10:39:13.525Z,4.46
2023-03-03T10:41:51.211Z,4.17
2023-03-03T10:44:33.933Z,3.94
2023-03-03T10:47:08.432Z,4.06
2023-03-03T10:50:12.617Z,4.29
2023-03-03T10:53:17.278Z,4.20
2023-03-03T10:56:01.320Z,4.35
2023-03-03T10:58:56.216Z,4.24
2023-03-03T11:01:48.863Z,4.35
2023-03-03T11:04:26.356Z,4.36
2023-03-03T11:07:20.721Z,4.45
2023-03-03T11:10:02.417Z,3.91
2023-03-03T11:12:48.517Z,4.27
2023-03-03T11:15:32.067Z,4.36
2023-03-03T11:18:29.487Z,4.20
2023-03-03T11:21:09.544Z,4.21
2023-03-03T11:23:48.927Z,4.52
2023-03-03T11:26:30.612Z,4.56
2023-03-03T11:29:10.864Z,4.39
2023-03-03T11:31:44.989Z,4.82
2023-03-03T11:34:16.284Z,4.73
2023-03-03T11:36:51.391Z,4.85
2023-03-03T11:39:22.263Z,4.51
2023-03-03T11:42:04.740Z,4.23
2023-03-03T11:44:57.411Z,4.20
2023-03-03T11:47:51.584Z,4.42
2023-03-03T11:50:27.635Z,4.54
2023-03-03T11:53:17.241Z,4.91
2023-03-03T11:55:46.664Z,4.78
2023-03-03T11:58:32.400Z,4.92
2023-03-03T12:01:23.457Z,5.00
2023-03-03T12:03:57.777Z,5.06
2023-03-03T12:06:47.670Z,4.92
2023-03-03T12:09:57.866Z,4.82
2023-03-03T12:12:45.269Z,5.01
2023-03-03T12:15:16.430Z,4.98
2023-03-03T12:18:11.877Z,4.71
2023-03-03T12:21:11.536Z,5.06
2023-03-03T12:24:13.124Z,4.96
2023-03-03T12:27:03.257Z,4.95
2023-03-03T12:29:51.713Z,5.00
2023-03-03T12:32:23.619Z,5.11
2023-03-03T12:34:58.008Z,5.30
2023-03-03T12:37:49.486Z,5.38
2023-03-03T12:40:21.406Z,5.29
2023-03-03T12:43:24.426Z,4.64
2023-03-03T12:46:28.569Z,4.47
2023-03-03T12:48:59.609Z,5.06
2023-03-03T12:51:38.855Z,5.39
2023-03-03T12:54:26.577Z,5.51
2023-03-03T12:56:58.011Z,5.21
2023-03-03T13:00:17.693Z,5.24
2023-03-03T13:03:07.079Z,5.36
2023-03-03T13:05:40.258Z,4.38
2023-03-03T13:08:31.830Z,5.00
2023-03-03T13:11:32.196Z,5.31
2023-03-03T13:14:27.052Z,5.03
2023-03-03T13:17:13.837Z,5.36
2023-03-03T13:19:58.786Z,5.61
2023-03-03T13:22:39.651Z,5.68
2023-03-03T13:25:20.626Z,5.28
2023-03-03T13:27:52.574Z,5.46
2023-03-03T13:30:33.880Z,5.69
2023-03-03T13:33:18.841Z,5.80
2023-03-03T13:36:13.256Z,5.45
2023-03-03T13:38:57.546Z,5.62
2023-03-03T13:41:49.252Z,5.77
2023-03-03T13:44:49.579Z,5.60
2023-03-03T13:47:57.897Z,5.70
2023-03-03T13:50:51.485Z,5.84
2023-03-03T13:53:46.247Z,5.94
2023-03-03T13:56:24.857Z,5.93
2023-03-03T13:59:04.877Z,6.04
2023-03-03T14:01:58.617Z,5.70
2023-03-03T14:04:35.251Z,5.73
2023-03-03T14:07:12.022Z,5.93
2023-03-03T14:10:09.566Z,6.04
2023-03-03T14:13:00.447Z,6.14
2023-03-03T14:15:41.283Z,6.14
2023-03-03T14:18:23.919Z,6.05
2023-03-03T14:20:52.913Z,6.10
2023-03-03T14:23:57.585Z,6.18
2023-03-03T14:26:30.686Z,6.29
2023-03-03T14:29:24.939Z,6.37
2023-03-03T14:31:56.140Z,5.85
2023-03-03T14:34:24.784Z,6.11
2023-03-03T14:36:54.285Z,5.37
2023-03-03T14:39:39.789Z,5.69
2023-03-03T14:42:32.497Z,5.75
2023-03-03T14:45:05.379Z,5.51
2023-03-03T14:47:36.020Z,6.02
2023-03-03T14:50:40.595Z,5.97
2023-03-03T14:53:14.097Z,5.85
2023-03-03T14:55:44.995Z,6.14
2023-03-03T14:58:39.650Z,6.30
2023-03-03T15:01:15.002Z,6.15
2023-03-03T15:03:50.547Z,6.07
2023-03-03T15:06:46.411Z,6.17
2023-03-03T15:09:31.758Z,6.40
2023-03-03T15:12:07.174Z,6.38
2023-03-03T15:14:45.061Z,6.31
2023-03-03T15:17:20.800Z,6.47
2023-03-03T15:19:56.401Z,6.48
2023-03-03T15:22:51.334Z,6.47
2023-03-03T15:25:43.491Z,6.46
2023-03-03T15:28:37.470Z,6.56
2023-03-03T15:32:10.675Z,6.67
2023-03-03T15:34:47.643Z,6.57
2023-03-03T15:37:28.918Z,6.61
2023-03-03T15:40:07.452Z,6.60
2023-03-03T15:42:51.889Z,6.49
2023-03-03T15:45:57.392Z,6.75
2023-03-03T15:48:51.962Z,6.73
2023-03-03T15:51:50.821Z,6.91
2023-03-03T15:54:44.456Z,6.81
2023-03-03T15:57:35.163Z,6.78
2023-03-03T16:00:35.623Z,6.77
2023-03-03T16:03:14.039Z,6.70
2023-03-03T16:05:51.477Z,6.77
2023-03-03T16:08:35.693Z,6.84
2023-03-03T16:11:29.615Z,6.89
2023-03-03T16:14:34.729Z,6.93
2023-03-03T16:17:22.945Z,6.79
2023-03-03T16:20:00.445Z,6.79
2023-03-03T16:22:57.990Z,6.89
2023-03-03T16:25:56.443Z,6.85
2023-03-03T16:28:29.171Z,6.85
2023-03-03T16:31:13.504Z,6.86
2023-03-03T16:34:17.730Z,6.83
2023-03-03T16:37:08.264Z,6.73
2023-03-03T16:39:42.998Z,6.73
2023-03-03T16:42:31.093Z,6.76
2023-03-03T16:45:11.726Z,6.69
2023-03-03T16:48:00.721Z,6.51
2023-03-03T16:50:56.409Z,6.55
2023-03-03T16:53:46.107Z,6.56
2023-03-03T16:56:29.880Z,6.54
2023-03-03T16:59:33.436Z,6.48
2023-03-03T17:02:41.172Z,6.54
2023-03-03T17:05:47.368Z,6.41
2023-03-03T17:08:49.404Z,6.48
2023-03-03T17:11:53.203Z,6.40
2023-03-03T17:14:35.144Z,6.41
2023-03-03T17:17:29.970Z,6.34
2023-03-03T17:20:24.798Z,6.34
2023-03-03T17:23:01.290Z,6.41
2023-03-03T17:25:47.236Z,6.22
2023-03-03T17:28:40.132Z,6.28
2023-03-03T17:31:17.639Z,6.20
2023-03-03T17:34:09.841Z,6.02
2023-03-03T17:36:51.733Z,6.17
2023-03-03T17:39:38.093Z,6.10
2023-03-03T17:42:24.455Z,5.89
2023-03-03T17:45:13.528Z,5.87
2023-03-03T17:48:18.643Z,5.94
2023-03-03T17:51:15.763Z,5.83
2023-03-03T17:54:10.492Z,5.92
2023-03-03T17:57:24.276Z,5.83
2023-03-03T17:59:58.841Z,5.72
2023-03-03T18:02:52.250Z,5.70
2023-03-03T18:05:39.878Z,5.80
2023-03-03T18:08:23.398Z,5.77
2023-03-03T18:11:15.430Z,5.72
2023-03-03T18:14:16.133Z,5.71
2023-03-03T18:16:58.560Z,5.74
2023-03-03T18:20:03.064Z,5.89
2023-03-03T18:22:32.756Z,5.87
2023-03-03T18:25:09.679Z,5.87
2023-03-03T18:27:40.288Z,5.76
2023-03-03T18:30:24.994Z,5.78
2023-03-03T18:32:59.384Z,5.80
2023-03-03T18:35:46.695Z,5.66
2023-03-03T18:38:17.607Z,5.73
2023-03-03T18:41:14.498Z,5.70
2023-03-03T18:43:52.318Z,5.85
2023-03-03T18:46:27.482Z,5.83
2023-03-03T18:49:10.883Z,5.55
2023-03-03T18:51:41.054Z,5.78
2023-03-03T18:54:30.572Z,5.75
2023-03-03T18:56:58.332Z,5.62
2023-03-03T18:59:35.910Z,5.69
2023-03-03T19:02:39.890Z,5.60
2023-03-03T19:05:27.626Z,5.76
2023-03-03T19:08:03.536Z,5.80
2023-03-03T19:10:40.426Z,5.78
2023-03-03T19:13:34.978Z,5.89
2023-03-03T19:16:08.590Z,5.68
2023-03-03T19:18:43.306Z,5.36
2023-03-03T19:21:28.910Z,5.49
2023-03-03T19:24:03.804Z,5.70
2023-03-03T19:26:46.960Z,5.72
2023-03-03T19:29:22.733Z,5.77
2023-03-03T19:32:09.341Z,5.90
2023-03-03T19:34:44.321Z,5.74
2023-03-03T19:37:53.917Z,5.83
2023-03-03T19:40:41.613Z,5.76
2023-03-03T19:43:45.810Z,5.78
2023-03-03T19:46:26.892Z,5.86
2023-03-03T19:49:03.430Z,5.76
2023-03-03T19:51:36.156Z,5.81
2023-03-03T19:54:13.217Z,5.62
2023-03-03T19:56:47.194Z,5.63
2023-03-03T19:59:48.675Z,5.76
2023-03-03T20:02:57.012Z,5.76
2023-03-03T20:05:46.441Z,5.73
2023-03-03T20:08:45.398Z,5.83
2023-03-03T20:11:48.964Z,5.70
2023-03-03T20:14:27.143Z,5.62
2023-03-03T20:16:58.224Z,5.77
2023-03-03T20:19:29.466Z,5.67
2023-03-03T20:22:26.270Z,5.63
2023-03-03T20:25:14.259Z,5.71
2023-03-03T20:27:58.103Z,5.72
2023-03-03T20:30:32.556Z,5.47
2023-03-03T20:33:17.047Z,5.30
2023-03-03T20:35:50.678Z,5.50
2023-03-03T20:38:32.281Z,5.39
2023-03-03T20:41:18.362Z,5.51
2023-03-03T20:44:05.996Z,5.53
2023-03-03T20:47:03.888Z,5.45
2023-03-03T20:50:16.131Z,5.46
2023-03-03T20:52:52.094Z,5.41
2023-03-03T20:55:35.068Z,5.17
2023-03-03T20:58:11.145Z,5.29
2023-03-03T21:00:50.625Z,5.26
2023-03-03T21:03:38.847Z,5.22
2023-03-03T21:06:18.182Z,5.24
2023-03-03T21:08:50.103Z,5.38
2023-03-03T21:11:19.982Z,5.02
2023-03-03T21:13:54.351Z,5.22
2023-03-03T21:16:22.098Z,5.30
2023-03-03T21:19:15.431Z,5.31
2023-03-03T21:21:47.408Z,5.36
2023-03-03T21:24:19.778Z,5.36
2023-03-03T21:26:59.550Z,5.42
2023-03-03T21:29:33.956Z,5.62
2023-03-03T21:32:09.196Z,5.47
2023-03-03T21:34:38.585Z,5.37
2023-03-03T21:37:11.527Z,5.37
2023-03-03T21:39:44.163Z,5.40
2023-03-03T21:42:14.684Z,5.00
2023-03-03T21:44:49.203Z,5.24
2023-03-03T21:47:20.929Z,5.23
2023-03-03T21:49:51.680Z,5.33
2023-03-03T21:52:21.134Z,5.35
2023-03-03T21:54:51.047Z,5.44
2023-03-03T21:57:20.173Z,5.50
2023-03-03T21:59:51.257Z,5.22
2023-03-03T22:02:18.394Z,5.41
2023-03-03T22:04:45.760Z,5.17
2023-03-03T22:07:14.088Z,5.03
2023-03-03T22:09:41.188Z,5.16
2023-03-03T22:12:09.371Z,5.37
2023-03-03T22:14:36.785Z,5.38
2023-03-03T22:17:04.019Z,5.49
2023-03-03T22:19:31.477Z,5.18
2023-03-03T22:21:58.529Z,5.34
2023-03-03T22:24:25.472Z,5.22
2023-03-03T22:26:52.606Z,5.31
2023-03-03T22:29:23.157Z,5.44
2023-03-03T22:31:51.793Z,5.41
2023-03-03T22:34:19.192Z,5.31
2023-03-03T22:36:46.185Z,5.31
2023-03-03T22:39:13.247Z,5.16
2023-03-03T22:41:40.424Z,4.77
2023-03-03T22:44:07.535Z,4.85
2023-03-03T22:46:34.627Z,4.90
2023-03-03T22:49:01.844Z,5.07
2023-03-03T22:51:28.870Z,5.05
2023-03-03T22:53:55.973Z,4.84
2023-03-03T22:56:24.359Z,5.13
2023-03-03T22:58:52.646Z,5.05
2023-03-03T23:01:21.663Z,5.16
2023-03-03T23:03:50.375Z,5.26
2023-03-03T23:06:18.468Z,4.93
2023-03-03T23:08:47.205Z,4.94
2023-03-03T23:11:15.495Z,5.04
2023-03-03T23:13:43.563Z,4.89
2023-03-03T23:16:12.677Z,4.90
2023-03-03T23:18:41.580Z,4.91
2023-03-03T23:21:10.587Z,4.94
2023-03-03T23:23:38.533Z,4.93
2023-03-03T23:26:06.093Z,4.97
2023-03-03T23:28:34.815Z,4.82
2023-03-03T23:31:04.142Z,4.74
2023-03-03T23:33:32.542Z,4.78
2023-03-03T23:36:01.759Z,4.65
2023-03-03T23:38:30.707Z,4.69
2023-03-03T23:41:00.341Z,4.69
2023-03-03T23:43:27.870Z,4.51
2023-03-03T23:45:55.065Z,4.49
2023-03-03T23:48:23.421Z,4.36
2023-03-03T23:50:51.469Z,4.27
2023-03-03T23:53:20.078Z,4.22
2023-03-03T23:55:47.185Z,4.44
2023-03-03T23:58:14.194Z,4.20
